Terminal Aerodrome Forecast
Issued by NWS

Home | Current Version | Previous Version | Text Only | Print | Product List | Glossary On
Versions: 1 2 3 4 5 6 7 8 9 10 11 12
000
FTUS44 KCRP 071733
TAFLRD
TAF
KLRD 071733Z 0718/0818 15020KT P6SM SCT050 BKN250
     FM081000 15013KT P6SM FEW012
     FM081500 16019KT P6SM SCT040=

USA.gov is the U.S. government's official web portal to all federal, state and local government web resources and services.